createdAt,value
2022-12-20T00:00:10.344Z,44.14
2022-12-20T00:00:31.980Z,44.33
2022-12-20T00:00:53.725Z,44.13
2022-12-20T00:01:18.798Z,44.08
2022-12-20T00:01:40.609Z,44.19
2022-12-20T00:02:02.455Z,44.06
2022-12-20T00:02:24.532Z,44.05
2022-12-20T00:02:47.287Z,44.34
2022-12-20T00:03:09.106Z,44.26
2022-12-20T00:03:30.721Z,44.05
2022-12-20T00:03:54.291Z,44.00
2022-12-20T00:04:16.984Z,43.96
2022-12-20T00:04:38.647Z,43.80
2022-12-20T00:05:00.267Z,43.89
2022-12-20T00:05:21.946Z,44.01
2022-12-20T00:05:44.007Z,43.94
2022-12-20T00:06:06.993Z,44.15
2022-12-20T00:06:29.171Z,44.13
2022-12-20T00:06:50.790Z,44.43
2022-12-20T00:07:12.473Z,44.50
2022-12-20T00:07:35.129Z,44.53
2022-12-20T00:07:56.757Z,44.42
2022-12-20T00:08:18.432Z,44.61
2022-12-20T00:08:40.625Z,44.21
2022-12-20T00:09:07.409Z,44.04
2022-12-20T00:09:29.001Z,44.21
2022-12-20T00:09:52.030Z,43.96
2022-12-20T00:10:13.785Z,43.90
2022-12-20T00:10:36.950Z,43.86
2022-12-20T00:11:00.299Z,44.01
2022-12-20T00:11:22.051Z,43.85
2022-12-20T00:11:43.788Z,43.67
2022-12-20T00:12:06.696Z,43.78
2022-12-20T00:12:28.369Z,43.48
2022-12-20T00:12:50.044Z,43.74
2022-12-20T00:13:13.061Z,43.51
2022-12-20T00:13:35.066Z,43.47
2022-12-20T00:13:57.866Z,43.38
2022-12-20T00:14:19.817Z,43.56
2022-12-20T00:14:41.614Z,43.32
2022-12-20T00:15:03.516Z,43.32
2022-12-20T00:15:26.185Z,43.45
2022-12-20T00:15:47.897Z,43.45
2022-12-20T00:16:12.198Z,43.43
2022-12-20T00:16:35.571Z,43.44
2022-12-20T00:16:58.278Z,43.42
2022-12-20T00:17:19.927Z,43.50
2022-12-20T00:17:41.630Z,43.31
2022-12-20T00:18:04.226Z,43.24
2022-12-20T00:18:25.855Z,43.26
2022-12-20T00:18:51.799Z,43.30
2022-12-20T00:19:13.607Z,43.33
2022-12-20T00:19:35.352Z,43.29
2022-12-20T00:19:56.953Z,43.28
2022-12-20T00:20:19.580Z,43.36
2022-12-20T00:20:41.307Z,43.43
2022-12-20T00:21:05.750Z,43.40
2022-12-20T00:21:28.850Z,43.57
2022-12-20T00:21:51.464Z,43.36
2022-12-20T00:22:13.136Z,43.34
2022-12-20T00:22:34.727Z,43.39
2022-12-20T00:22:56.642Z,43.30
2022-12-20T00:23:18.310Z,43.46
2022-12-20T00:23:41.527Z,43.55
2022-12-20T00:24:03.979Z,43.54
2022-12-20T00:24:26.517Z,43.46
2022-12-20T00:24:49.245Z,43.56
2022-12-20T00:25:12.189Z,43.36
2022-12-20T00:25:33.828Z,43.42
2022-12-20T00:26:01.137Z,43.48
2022-12-20T00:26:26.370Z,43.64
2022-12-20T00:26:48.075Z,43.48
2022-12-20T00:27:09.688Z,43.49
2022-12-20T00:27:31.377Z,43.54
2022-12-20T00:27:52.991Z,43.50
2022-12-20T00:28:15.684Z,43.88
2022-12-20T00:28:38.246Z,43.86
2022-12-20T00:29:00.353Z,43.88
2022-12-20T00:29:22.605Z,43.88
2022-12-20T00:29:45.420Z,44.03
2022-12-20T00:30:08.688Z,44.01
2022-12-20T00:30:30.377Z,44.18
2022-12-20T00:30:53.973Z,44.21
2022-12-20T00:31:20.899Z,44.56
2022-12-20T00:31:42.626Z,44.58
2022-12-20T00:32:04.515Z,44.61
2022-12-20T00:32:27.721Z,44.76
2022-12-20T00:32:49.542Z,44.59
2022-12-20T00:33:12.101Z,44.57
2022-12-20T00:33:38.064Z,44.69
2022-12-20T00:34:00.672Z,44.71
2022-12-20T00:34:23.344Z,45.00
2022-12-20T00:34:45.035Z,44.96
2022-12-20T00:35:07.181Z,44.99
2022-12-20T00:35:28.831Z,45.22
2022-12-20T00:35:50.556Z,45.31
2022-12-20T00:36:13.207Z,45.49
2022-12-20T00:36:34.875Z,45.33
2022-12-20T00:36:56.559Z,45.41
2022-12-20T00:37:18.149Z,45.54
2022-12-20T00:37:41.182Z,45.41
2022-12-20T00:38:03.008Z,45.54
2022-12-20T00:38:25.831Z,45.84
2022-12-20T00:38:48.545Z,45.86
2022-12-20T00:39:11.869Z,46.23
2022-12-20T00:39:33.475Z,46.08
2022-12-20T00:39:55.234Z,45.95
2022-12-20T00:40:18.435Z,46.08
2022-12-20T00:40:41.085Z,46.05
2022-12-20T00:41:06.598Z,46.25
2022-12-20T00:41:30.043Z,46.29
2022-12-20T00:41:53.091Z,46.43
2022-12-20T00:42:15.559Z,46.70
2022-12-20T00:42:37.187Z,46.48
2022-12-20T00:42:59.866Z,46.61
2022-12-20T00:43:21.977Z,46.54
2022-12-20T00:43:45.019Z,46.47
2022-12-20T00:44:06.642Z,46.77
2022-12-20T00:44:28.665Z,46.84
2022-12-20T00:44:51.263Z,46.80
2022-12-20T00:45:12.883Z,46.58
2022-12-20T00:45:34.640Z,46.60
2022-12-20T00:45:56.290Z,46.67
2022-12-20T00:46:19.285Z,46.71
2022-12-20T00:46:42.076Z,46.86
2022-12-20T00:47:04.785Z,46.86
2022-12-20T00:47:26.759Z,46.72
2022-12-20T00:47:48.431Z,46.74
2022-12-20T00:48:10.110Z,46.78
2022-12-20T00:48:33.140Z,46.62
2022-12-20T00:48:55.748Z,46.82
2022-12-20T00:49:17.455Z,46.83
2022-12-20T00:49:39.209Z,46.73
2022-12-20T00:50:01.864Z,47.13
2022-12-20T00:50:23.619Z,46.75
2022-12-20T00:50:45.307Z,47.03
2022-12-20T00:51:09.440Z,46.79
2022-12-20T00:51:32.964Z,46.83
2022-12-20T00:51:54.577Z,46.66
2022-12-20T00:52:16.169Z,46.49
2022-12-20T00:52:38.013Z,46.75
2022-12-20T00:53:00.696Z,46.63
2022-12-20T00:53:26.305Z,46.72
2022-12-20T00:53:48.586Z,46.87
2022-12-20T00:54:10.229Z,46.97
2022-12-20T00:54:33.444Z,46.87
2022-12-20T00:54:55.029Z,46.90
2022-12-20T00:55:18.011Z,46.81
2022-12-20T00:55:41.453Z,46.88
2022-12-20T00:56:05.315Z,47.09
2022-12-20T00:56:28.020Z,47.03
2022-12-20T00:56:50.704Z,47.11
2022-12-20T00:57:12.356Z,46.88
2022-12-20T00:57:34.985Z,46.80
2022-12-20T00:57:56.598Z,47.07
2022-12-20T00:58:18.244Z,47.25
2022-12-20T00:58:41.706Z,47.15
2022-12-20T00:59:03.469Z,47.28
2022-12-20T00:59:26.495Z,47.37
2022-12-20T00:59:48.204Z,47.48
2022-12-20T01:00:11.449Z,47.33
2022-12-20T01:00:33.178Z,47.30
2022-12-20T01:00:56.839Z,47.13
2022-12-20T01:01:22.633Z,47.34
2022-12-20T01:01:45.206Z,47.29
2022-12-20T01:02:07.173Z,47.16
2022-12-20T01:02:29.236Z,47.29
2022-12-20T01:02:52.275Z,47.62
2022-12-20T01:03:14.254Z,47.60
2022-12-20T01:03:36.500Z,47.64
2022-12-20T01:03:58.182Z,47.33
2022-12-20T01:04:20.910Z,47.23
2022-12-20T01:04:42.578Z,47.65
2022-12-20T01:05:04.933Z,47.72
2022-12-20T01:05:26.593Z,47.63
2022-12-20T01:05:52.973Z,47.52
2022-12-20T01:06:15.716Z,47.68
2022-12-20T01:06:37.434Z,47.63
2022-12-20T01:06:59.066Z,47.39
2022-12-20T01:07:23.384Z,47.67
2022-12-20T01:07:45.313Z,47.59
2022-12-20T01:08:07.225Z,47.50
2022-12-20T01:08:30.962Z,47.73
2022-12-20T01:08:53.259Z,47.55
2022-12-20T01:09:15.834Z,47.75
2022-12-20T01:09:37.489Z,47.63
2022-12-20T01:09:59.501Z,47.77
2022-12-20T01:10:22.612Z,47.83
2022-12-20T01:10:44.454Z,47.64
2022-12-20T01:11:09.892Z,47.61
2022-12-20T01:11:34.227Z,47.85
2022-12-20T01:11:56.371Z,47.69
2022-12-20T01:12:18.108Z,47.87
2022-12-20T01:12:40.727Z,47.88
2022-12-20T01:13:02.344Z,47.95
2022-12-20T01:13:24.188Z,47.80
2022-12-20T01:13:49.481Z,48.11
2022-12-20T01:14:14.735Z,47.81
2022-12-20T01:14:36.430Z,47.82
2022-12-20T01:14:58.077Z,47.85
2022-12-20T01:15:20.050Z,47.86
2022-12-20T01:15:41.680Z,47.78
2022-12-20T01:16:05.480Z,47.70
2022-12-20T01:16:31.125Z,47.80
2022-12-20T01:16:52.918Z,47.38
2022-12-20T01:17:15.368Z,47.47
2022-12-20T01:17:37.828Z,47.21
2022-12-20T01:18:00.515Z,47.51
2022-12-20T01:18:22.375Z,47.30
2022-12-20T01:18:44.713Z,47.18
2022-12-20T01:19:07.762Z,47.14
2022-12-20T01:19:30.360Z,47.22
2022-12-20T01:19:52.018Z,47.34
2022-12-20T01:21:01.608Z,46.91
2022-12-20T01:21:26.353Z,47.07
2022-12-20T01:21:48.066Z,47.04
2022-12-20T01:22:09.906Z,46.98
2022-12-20T01:22:31.547Z,47.00
2022-12-20T01:22:54.257Z,46.78
2022-12-20T01:23:15.999Z,46.95
2022-12-20T01:23:38.121Z,46.80
2022-12-20T01:23:59.756Z,46.54
2022-12-20T01:24:21.492Z,46.75
2022-12-20T01:24:44.091Z,46.67
2022-12-20T01:25:06.762Z,46.56
2022-12-20T01:25:30.028Z,46.25
2022-12-20T01:25:51.688Z,46.46
2022-12-20T01:26:16.366Z,46.47
2022-12-20T01:26:39.128Z,46.68
2022-12-20T01:27:00.820Z,46.80
2022-12-20T01:27:22.601Z,46.62
2022-12-20T01:27:44.378Z,46.72
2022-12-20T01:28:06.262Z,46.55
2022-12-20T01:28:30.129Z,46.87
2022-12-20T01:28:54.336Z,46.86
2022-12-20T01:29:16.155Z,46.96
2022-12-20T01:29:37.720Z,46.70
2022-12-20T01:30:00.454Z,46.63
2022-12-20T01:30:22.152Z,46.69
2022-12-20T01:30:43.811Z,46.71
2022-12-20T01:31:06.571Z,46.78
2022-12-20T01:31:29.580Z,46.66
2022-12-20T01:32:04.772Z,46.79
2022-12-20T01:32:26.410Z,46.87
2022-12-20T01:32:48.059Z,46.59
2022-12-20T01:33:09.687Z,46.93
2022-12-20T01:33:32.264Z,46.77
2022-12-20T01:33:53.907Z,46.67
2022-12-20T01:34:15.463Z,46.54
2022-12-20T01:34:38.066Z,46.58
2022-12-20T01:34:59.790Z,46.52
2022-12-20T01:35:21.410Z,46.69
2022-12-20T01:35:43.996Z,46.75
2022-12-20T01:36:08.169Z,46.73
2022-12-20T01:36:32.964Z,46.54
2022-12-20T01:36:54.550Z,46.65
2022-12-20T01:37:16.224Z,46.47
2022-12-20T01:37:37.836Z,46.59
2022-12-20T01:37:59.414Z,46.60
2022-12-20T01:38:21.041Z,46.33
2022-12-20T01:38:43.773Z,46.65
2022-12-20T01:39:08.745Z,46.32
2022-12-20T01:39:31.377Z,46.57
2022-12-20T01:39:53.531Z,46.49
2022-12-20T01:40:16.853Z,46.47
2022-12-20T01:40:40.302Z,46.59
2022-12-20T01:41:02.577Z,46.92
2022-12-20T01:41:25.043Z,46.55
2022-12-20T01:41:46.782Z,46.44
2022-12-20T01:42:15.791Z,46.86
2022-12-20T01:42:38.259Z,46.43
2022-12-20T01:42:59.875Z,46.55
2022-12-20T01:43:22.215Z,46.58
2022-12-20T01:43:48.652Z,46.79
2022-12-20T01:44:43.960Z,46.73
2022-12-20T01:45:14.051Z,46.94
2022-12-20T01:45:35.774Z,46.65
2022-12-20T01:45:57.495Z,46.80
2022-12-20T01:46:21.621Z,46.99
2022-12-20T01:46:45.830Z,46.91
2022-12-20T01:47:07.821Z,47.03
2022-12-20T01:47:34.325Z,46.95
2022-12-20T01:47:57.035Z,46.83
2022-12-20T01:48:25.379Z,46.94
2022-12-20T01:48:52.554Z,46.97
2022-12-20T01:49:20.244Z,46.89
2022-12-20T01:49:47.076Z,47.05
2022-12-20T01:50:10.609Z,47.26
2022-12-20T01:50:32.294Z,47.25
2022-12-20T01:50:54.100Z,46.98
2022-12-20T01:51:16.109Z,46.97
2022-12-20T01:51:44.601Z,46.79
2022-12-20T01:52:12.020Z,47.16
2022-12-20T01:52:37.103Z,46.92
2022-12-20T01:53:00.174Z,46.74
2022-12-20T01:53:23.745Z,46.69
2022-12-20T01:53:47.318Z,46.91
2022-12-20T01:54:15.525Z,47.01
2022-12-20T01:54:42.768Z,46.83
2022-12-20T01:55:09.861Z,46.89
2022-12-20T01:55:33.092Z,46.70
2022-12-20T01:55:56.500Z,46.70
2022-12-20T01:56:19.141Z,46.68
2022-12-20T01:56:43.838Z,46.89
2022-12-20T01:57:09.156Z,46.87
2022-12-20T01:57:36.559Z,46.88
2022-12-20T01:58:03.097Z,46.76
2022-12-20T01:58:24.814Z,46.56
2022-12-20T01:58:49.098Z,46.79
2022-12-20T01:59:12.452Z,47.01
2022-12-20T01:59:38.283Z,46.89
2022-12-20T01:59:59.999Z,46.91
2022-12-20T02:00:21.761Z,46.90
2022-12-20T02:00:44.554Z,46.76
2022-12-20T02:01:07.889Z,46.84
2022-12-20T02:01:29.605Z,46.99
2022-12-20T02:01:51.636Z,46.79
2022-12-20T02:02:14.091Z,46.58
2022-12-20T02:02:37.764Z,46.87
2022-12-20T02:03:03.993Z,46.58
2022-12-20T02:03:26.088Z,46.85
2022-12-20T02:03:49.405Z,46.82
2022-12-20T02:04:12.044Z,46.66
2022-12-20T02:04:33.664Z,46.55
2022-12-20T02:04:55.289Z,46.60
2022-12-20T02:05:19.406Z,46.57
2022-12-20T02:05:45.144Z,46.73
2022-12-20T02:06:19.071Z,46.82
2022-12-20T02:06:40.704Z,46.53
2022-12-20T02:07:04.761Z,46.90
2022-12-20T02:07:30.790Z,46.63
2022-12-20T02:07:56.395Z,46.79
2022-12-20T02:08:21.365Z,46.66
2022-12-20T02:08:44.769Z,46.61
2022-12-20T02:09:08.429Z,46.63
2022-12-20T02:09:32.383Z,46.74
2022-12-20T02:09:57.507Z,46.32
2022-12-20T02:10:22.904Z,46.71
2022-12-20T02:11:01.159Z,46.64
2022-12-20T02:11:43.419Z,46.67
2022-12-20T02:12:10.614Z,46.65
2022-12-20T02:12:38.911Z,46.46
2022-12-20T02:13:08.243Z,46.46
2022-12-20T02:13:38.818Z,46.64
2022-12-20T02:14:08.815Z,46.56
2022-12-20T02:14:49.204Z,46.63
2022-12-20T02:15:29.408Z,46.34
2022-12-20T02:15:55.285Z,46.46
2022-12-20T02:16:23.795Z,46.63
2022-12-20T02:16:56.816Z,46.36
2022-12-20T02:17:28.368Z,46.61
2022-12-20T02:18:01.568Z,46.63
2022-12-20T02:18:28.910Z,46.59
2022-12-20T02:18:58.135Z,46.89
2022-12-20T02:19:35.975Z,47.26
2022-12-20T02:20:36.686Z,46.87
2022-12-20T02:21:18.592Z,47.35
2022-12-20T02:21:46.893Z,47.54
2022-12-20T02:22:19.224Z,47.49
2022-12-20T02:22:56.030Z,47.44
2022-12-20T02:23:46.156Z,47.03
2022-12-20T02:24:54.272Z,47.16
2022-12-20T02:25:38.993Z,47.21
2022-12-20T02:26:18.777Z,47.55
2022-12-20T02:27:03.916Z,47.54
2022-12-20T02:27:39.668Z,47.46
2022-12-20T02:28:06.070Z,47.46
2022-12-20T02:28:45.487Z,47.56
2022-12-20T02:29:22.263Z,47.67
2022-12-20T02:30:01.363Z,47.36
2022-12-20T02:30:27.682Z,47.61
2022-12-20T02:30:54.825Z,47.81
2022-12-20T02:31:21.718Z,48.07
2022-12-20T02:31:49.961Z,48.15
2022-12-20T02:32:18.480Z,48.17
2022-12-20T02:32:46.529Z,47.87
2022-12-20T02:33:11.756Z,47.96
2022-12-20T02:33:33.657Z,48.13
2022-12-20T02:33:58.423Z,48.12
2022-12-20T02:34:27.126Z,48.06
2022-12-20T02:34:50.651Z,47.83
2022-12-20T02:35:14.995Z,48.00
2022-12-20T02:35:39.688Z,48.05
2022-12-20T02:36:04.899Z,47.82
2022-12-20T02:36:26.776Z,47.73
2022-12-20T02:36:48.496Z,48.04
2022-12-20T02:37:12.068Z,47.84
2022-12-20T02:37:33.727Z,48.11
2022-12-20T02:37:57.996Z,47.91
2022-12-20T02:38:29.101Z,48.21
2022-12-20T02:38:53.126Z,47.98
2022-12-20T02:39:17.045Z,48.17
2022-12-20T02:39:40.849Z,48.33
2022-12-20T02:40:06.159Z,48.24
2022-12-20T02:40:33.067Z,48.25
2022-12-20T02:41:00.287Z,48.34
2022-12-20T02:41:26.683Z,48.35
2022-12-20T02:41:53.058Z,48.28
2022-12-20T02:42:20.104Z,48.54
2022-12-20T02:42:43.739Z,48.52
2022-12-20T02:43:31.716Z,48.70
2022-12-20T02:44:18.354Z,48.71
2022-12-20T02:45:03.317Z,48.62
2022-12-20T02:45:33.810Z,49.07
2022-12-20T02:45:58.833Z,49.11
2022-12-20T02:46:23.528Z,49.32
2022-12-20T02:46:49.952Z,49.31
2022-12-20T02:47:16.836Z,49.13
2022-12-20T02:47:45.736Z,49.31
2022-12-20T02:48:11.974Z,49.13
2022-12-20T02:48:37.341Z,49.17
2022-12-20T02:49:04.902Z,49.41
2022-12-20T02:49:30.669Z,49.60
2022-12-20T02:49:55.719Z,49.46
2022-12-20T02:50:21.778Z,49.41
2022-12-20T02:50:49.633Z,49.57
2022-12-20T02:51:12.703Z,49.42
2022-12-20T02:51:36.007Z,49.76
2022-12-20T02:52:01.032Z,49.78
2022-12-20T02:52:27.784Z,49.83
2022-12-20T02:52:50.767Z,49.81
2022-12-20T02:53:14.344Z,49.82
2022-12-20T02:53:42.710Z,49.74
2022-12-20T02:54:07.875Z,49.76
2022-12-20T02:54:30.212Z,49.73
2022-12-20T02:54:53.392Z,49.87
2022-12-20T02:55:15.817Z,49.79
2022-12-20T02:55:42.770Z,50.17
2022-12-20T02:56:13.011Z,49.93
2022-12-20T02:56:39.582Z,50.00
2022-12-20T02:57:06.540Z,50.25
2022-12-20T02:57:37.022Z,49.98
2022-12-20T02:58:03.014Z,50.02
2022-12-20T02:58:31.677Z,50.54
2022-12-20T02:59:01.652Z,50.67
2022-12-20T02:59:26.190Z,50.56
2022-12-20T02:59:55.619Z,50.56
2022-12-20T03:00:21.361Z,50.64
2022-12-20T03:00:48.910Z,50.49
2022-12-20T03:01:16.513Z,50.81
2022-12-20T03:01:43.669Z,50.70
2022-12-20T03:02:06.941Z,50.75
2022-12-20T03:02:29.700Z,50.73
2022-12-20T03:03:11.084Z,50.64
2022-12-20T03:03:34.996Z,50.76
2022-12-20T03:03:58.129Z,50.57
2022-12-20T03:04:25.572Z,50.84
2022-12-20T03:04:49.259Z,50.67
2022-12-20T03:05:12.832Z,50.67
2022-12-20T03:05:43.814Z,50.76
2022-12-20T03:06:09.034Z,50.85
2022-12-20T03:06:34.637Z,50.97
2022-12-20T03:06:59.348Z,50.79
2022-12-20T03:07:21.515Z,50.69
2022-12-20T03:07:44.131Z,50.78
2022-12-20T03:08:07.078Z,50.82
2022-12-20T03:08:29.905Z,50.99
2022-12-20T03:08:52.528Z,50.99
2022-12-20T03:09:19.335Z,51.11
2022-12-20T03:09:45.862Z,50.97
2022-12-20T03:10:11.749Z,50.92
2022-12-20T03:10:34.747Z,51.04
2022-12-20T03:10:56.965Z,50.92
2022-12-20T03:11:20.312Z,50.89
2022-12-20T03:11:41.970Z,51.27
2022-12-20T03:12:05.143Z,51.28
2022-12-20T03:12:30.292Z,51.19
2022-12-20T03:12:52.409Z,51.17
2022-12-20T03:13:15.291Z,51.40
2022-12-20T03:13:43.769Z,51.04
2022-12-20T03:14:05.497Z,51.02
2022-12-20T03:14:29.799Z,50.74
2022-12-20T03:14:53.719Z,50.65
2022-12-20T03:15:16.757Z,50.73
2022-12-20T03:15:39.961Z,50.76
2022-12-20T03:16:04.105Z,50.83
2022-12-20T03:16:25.821Z,50.73
2022-12-20T03:16:47.682Z,50.65
2022-12-20T03:17:09.471Z,50.60
2022-12-20T03:17:33.058Z,50.53
2022-12-20T03:17:55.717Z,50.58
2022-12-20T03:18:17.724Z,50.66
2022-12-20T03:18:39.743Z,50.72
2022-12-20T03:19:01.482Z,50.48
2022-12-20T03:19:24.273Z,50.74
2022-12-20T03:19:45.921Z,50.72
2022-12-20T03:20:08.939Z,50.83
2022-12-20T03:20:30.715Z,50.87
2022-12-20T03:20:53.351Z,50.80
2022-12-20T03:21:15.022Z,50.55
2022-12-20T03:21:36.763Z,50.76
2022-12-20T03:21:58.640Z,50.73
2022-12-20T03:22:21.734Z,50.48
2022-12-20T03:22:43.400Z,50.91
2022-12-20T03:23:05.156Z,50.74
2022-12-20T03:23:26.967Z,50.86
2022-12-20T03:23:48.690Z,50.61
2022-12-20T03:24:13.584Z,50.74
2022-12-20T03:24:35.256Z,50.72
2022-12-20T03:25:01.877Z,50.83
2022-12-20T03:25:25.334Z,50.85
2022-12-20T03:25:47.927Z,50.67
2022-12-20T03:26:17.353Z,50.74
2022-12-20T03:26:43.588Z,50.57
2022-12-20T03:27:05.208Z,50.57
2022-12-20T03:27:28.830Z,50.75
2022-12-20T03:27:51.918Z,50.86
2022-12-20T03:28:13.799Z,50.73
2022-12-20T03:28:35.524Z,50.51
2022-12-20T03:28:58.154Z,50.52
2022-12-20T03:29:22.236Z,50.56
2022-12-20T03:29:45.885Z,50.37
2022-12-20T03:30:08.789Z,50.46
2022-12-20T03:30:33.470Z,50.42
2022-12-20T03:30:55.157Z,50.17
2022-12-20T03:31:18.336Z,50.22
2022-12-20T03:31:45.281Z,50.41
2022-12-20T03:32:07.961Z,50.35
2022-12-20T03:32:29.541Z,50.16
2022-12-20T03:32:51.215Z,50.05
2022-12-20T03:33:13.042Z,50.22
2022-12-20T03:33:36.474Z,50.50
2022-12-20T03:34:01.334Z,50.43
2022-12-20T03:34:23.173Z,50.38
2022-12-20T03:34:44.843Z,50.66
2022-12-20T03:35:07.852Z,50.53
2022-12-20T03:35:33.867Z,50.32
2022-12-20T03:35:55.568Z,50.54
2022-12-20T03:36:17.537Z,50.48
2022-12-20T03:36:39.160Z,50.35
2022-12-20T03:37:02.221Z,50.31
2022-12-20T03:37:24.031Z,50.50
2022-12-20T03:37:45.729Z,50.54
2022-12-20T03:38:07.539Z,50.40
2022-12-20T03:38:30.184Z,50.43
2022-12-20T03:38:53.165Z,50.34
2022-12-20T03:39:17.361Z,50.47
2022-12-20T03:39:39.355Z,50.41
2022-12-20T03:40:05.257Z,50.38
2022-12-20T03:40:27.308Z,50.36
2022-12-20T03:40:49.229Z,50.28
2022-12-20T03:41:15.617Z,50.45
2022-12-20T03:41:37.638Z,50.17
2022-12-20T03:42:00.379Z,50.22
2022-12-20T03:42:22.241Z,49.85
2022-12-20T03:42:44.915Z,49.75
2022-12-20T03:43:06.626Z,49.61
2022-12-20T03:43:28.324Z,50.08
2022-12-20T03:43:50.446Z,50.18
2022-12-20T03:44:12.313Z,50.17
2022-12-20T03:44:35.594Z,50.30
2022-12-20T03:44:58.146Z,49.93
2022-12-20T03:45:22.472Z,49.83
2022-12-20T03:45:45.365Z,49.61
2022-12-20T03:46:08.048Z,49.56
2022-12-20T03:46:34.657Z,49.34
2022-12-20T03:46:58.006Z,49.61
2022-12-20T03:47:20.680Z,49.51
2022-12-20T03:47:43.017Z,49.67
2022-12-20T03:48:05.020Z,49.67
2022-12-20T03:48:27.734Z,49.57
2022-12-20T03:48:50.344Z,49.28
2022-12-20T03:49:12.195Z,49.17
2022-12-20T03:49:40.359Z,49.50
2022-12-20T03:50:02.059Z,49.42
2022-12-20T03:50:27.293Z,49.23
2022-12-20T03:50:49.951Z,49.03
2022-12-20T03:51:11.904Z,49.61
2022-12-20T03:51:33.947Z,49.61
2022-12-20T03:51:56.507Z,49.33
2022-12-20T03:52:18.563Z,49.17
2022-12-20T03:52:41.198Z,49.22
2022-12-20T03:53:03.457Z,49.22
2022-12-20T03:53:25.490Z,49.62
2022-12-20T03:53:47.148Z,49.69
2022-12-20T03:54:09.612Z,49.39
2022-12-20T03:54:50.679Z,49.75
2022-12-20T03:55:15.523Z,50.05
2022-12-20T03:55:40.818Z,50.19
2022-12-20T03:56:06.447Z,50.27
2022-12-20T03:56:29.025Z,50.29
2022-12-20T03:56:50.758Z,49.91
2022-12-20T03:57:12.925Z,49.95
2022-12-20T03:57:35.019Z,49.75
2022-12-20T03:57:58.123Z,49.97
2022-12-20T03:58:25.055Z,49.91
2022-12-20T03:58:46.855Z,49.60
2022-12-20T03:59:10.216Z,49.74
2022-12-20T03:59:31.928Z,49.62
2022-12-20T03:59:55.742Z,50.35
2022-12-20T04:00:18.289Z,50.32
2022-12-20T04:00:42.415Z,49.72
2022-12-20T04:01:27.679Z,49.54
2022-12-20T04:01:51.843Z,49.51
2022-12-20T04:02:13.751Z,49.85
2022-12-20T04:02:35.922Z,50.02
2022-12-20T04:02:59.274Z,50.10
2022-12-20T04:03:21.610Z,50.25
2022-12-20T04:03:44.282Z,50.61
2022-12-20T04:04:06.299Z,50.75
2022-12-20T04:04:29.609Z,50.75
2022-12-20T04:04:51.274Z,50.48
2022-12-20T04:05:13.085Z,50.22
2022-12-20T04:05:34.888Z,50.44
2022-12-20T04:05:57.769Z,50.90
2022-12-20T04:06:19.553Z,51.14
2022-12-20T04:06:41.436Z,51.17
2022-12-20T04:07:03.328Z,51.69
2022-12-20T04:07:27.741Z,51.58
2022-12-20T04:07:49.871Z,51.60
2022-12-20T04:08:11.926Z,51.46
2022-12-20T04:08:34.774Z,51.66
2022-12-20T04:08:57.492Z,51.34
2022-12-20T04:09:24.346Z,51.43
2022-12-20T04:09:51.574Z,51.44
2022-12-20T04:10:13.592Z,51.86
2022-12-20T04:10:57.315Z,51.74
2022-12-20T04:11:23.835Z,51.97
2022-12-20T04:11:50.553Z,52.57
2022-12-20T04:12:13.305Z,52.48
2022-12-20T04:12:35.209Z,52.36
2022-12-20T04:12:59.271Z,51.90
2022-12-20T04:13:21.020Z,51.75
2022-12-20T04:13:43.203Z,51.87
2022-12-20T04:14:06.658Z,52.07
2022-12-20T04:14:28.658Z,51.99
2022-12-20T04:14:50.494Z,52.05
2022-12-20T04:15:12.305Z,51.60
2022-12-20T04:15:36.541Z,51.64
2022-12-20T04:16:00.832Z,51.80
2022-12-20T04:16:28.865Z,51.90
2022-12-20T04:16:52.494Z,52.01
2022-12-20T04:17:18.337Z,52.05
2022-12-20T04:17:41.529Z,52.01
2022-12-20T04:18:03.996Z,52.19
2022-12-20T04:18:25.718Z,52.00
2022-12-20T04:18:47.964Z,52.30
2022-12-20T04:19:11.926Z,52.64
2022-12-20T04:19:39.867Z,52.71
2022-12-20T04:20:18.786Z,52.86
2022-12-20T04:20:44.380Z,52.85
2022-12-20T04:21:16.388Z,52.93
2022-12-20T04:21:42.226Z,52.73
2022-12-20T04:22:05.985Z,52.87
2022-12-20T04:22:42.034Z,52.59
2022-12-20T04:23:03.946Z,52.51
2022-12-20T04:23:25.862Z,52.43
2022-12-20T04:23:47.573Z,52.28
2022-12-20T04:24:12.254Z,52.41
2022-12-20T04:24:54.844Z,52.06
2022-12-20T04:25:26.907Z,52.47
2022-12-20T04:25:51.199Z,52.54
2022-12-20T04:26:13.397Z,52.39
2022-12-20T04:26:35.223Z,52.69
2022-12-20T04:26:58.274Z,52.82
2022-12-20T04:27:20.979Z,52.93
2022-12-20T04:27:44.133Z,52.74
2022-12-20T04:28:06.031Z,52.84
2022-12-20T04:28:27.866Z,52.88
2022-12-20T04:28:51.812Z,52.99
2022-12-20T04:29:14.878Z,52.77
2022-12-20T04:29:38.542Z,53.17
2022-12-20T04:30:03.787Z,53.01
2022-12-20T04:30:25.877Z,53.23
2022-12-20T04:30:47.766Z,53.13
2022-12-20T04:31:20.043Z,52.87
2022-12-20T04:31:45.991Z,52.79
2022-12-20T04:32:09.412Z,53.02
2022-12-20T04:32:34.322Z,52.89
2022-12-20T04:32:57.157Z,53.12
2022-12-20T04:33:23.969Z,53.08
2022-12-20T04:33:46.608Z,53.06
2022-12-20T04:34:08.741Z,53.10
2022-12-20T04:34:34.757Z,52.84
2022-12-20T04:34:56.793Z,53.03
2022-12-20T04:35:19.905Z,53.03
2022-12-20T04:35:41.898Z,52.95
2022-12-20T04:36:04.502Z,53.03
2022-12-20T04:36:30.804Z,53.03
2022-12-20T04:36:54.796Z,52.74
2022-12-20T04:37:30.482Z,52.92
2022-12-20T04:37:56.715Z,52.79
2022-12-20T04:38:20.207Z,52.54
2022-12-20T04:38:48.911Z,52.49
2022-12-20T04:39:11.447Z,52.75
2022-12-20T04:39:58.260Z,52.83
2022-12-20T04:40:29.065Z,52.58
2022-12-20T04:40:55.809Z,52.67
2022-12-20T04:41:22.618Z,52.89
2022-12-20T04:41:48.654Z,52.68
2022-12-20T04:42:11.353Z,52.65
2022-12-20T04:42:33.881Z,52.76
2022-12-20T04:42:55.886Z,52.70
2022-12-20T04:43:18.656Z,52.50
2022-12-20T04:43:42.087Z,52.60
2022-12-20T04:44:03.974Z,52.65
2022-12-20T04:44:31.077Z,52.56
2022-12-20T04:44:54.267Z,52.59
2022-12-20T04:45:21.221Z,52.77
2022-12-20T04:45:44.231Z,52.82
2022-12-20T04:46:06.314Z,52.84
2022-12-20T04:46:28.268Z,52.79
2022-12-20T04:46:54.375Z,52.65
2022-12-20T04:47:17.503Z,52.77
2022-12-20T04:47:39.135Z,52.76
2022-12-20T04:48:21.070Z,52.74
2022-12-20T04:49:00.695Z,52.79
2022-12-20T04:49:24.868Z,52.54
2022-12-20T04:49:46.521Z,52.55
2022-12-20T04:50:09.025Z,52.70
2022-12-20T04:50:31.596Z,52.80
2022-12-20T04:50:54.218Z,52.72
2022-12-20T04:51:16.432Z,52.67
2022-12-20T04:51:39.581Z,52.39
2022-12-20T04:52:21.490Z,52.54
2022-12-20T04:53:02.245Z,52.49
2022-12-20T04:53:43.237Z,52.33
2022-12-20T04:54:05.776Z,52.21
2022-12-20T04:54:36.341Z,52.32
2022-12-20T04:55:08.973Z,52.65
2022-12-20T04:55:31.107Z,52.61
2022-12-20T04:55:54.672Z,52.27
2022-12-20T04:56:18.504Z,52.72
2022-12-20T04:56:40.191Z,52.65
2022-12-20T04:57:07.081Z,52.78
2022-12-20T04:57:29.771Z,52.63
2022-12-20T04:57:51.605Z,52.65
2022-12-20T04:58:13.744Z,52.47
2022-12-20T04:58:36.134Z,52.45
2022-12-20T04:59:02.461Z,52.81
2022-12-20T04:59:24.670Z,52.40
2022-12-20T04:59:48.556Z,52.41
2022-12-20T05:00:11.344Z,52.44
2022-12-20T05:00:37.703Z,52.68
2022-12-20T05:01:12.785Z,52.54
2022-12-20T05:01:41.046Z,52.58
2022-12-20T05:02:03.146Z,52.88
2022-12-20T05:02:51.456Z,52.77
2022-12-20T05:03:15.153Z,52.77
2022-12-20T05:03:37.332Z,52.65
2022-12-20T05:03:59.168Z,52.54
2022-12-20T05:04:28.026Z,52.66
2022-12-20T05:04:53.231Z,52.42
2022-12-20T05:05:14.850Z,52.27
2022-12-20T05:05:42.858Z,52.28
2022-12-20T05:06:06.200Z,52.51
2022-12-20T05:06:28.379Z,52.49
2022-12-20T05:06:50.352Z,52.40
2022-12-20T05:07:12.014Z,52.66
2022-12-20T05:07:37.355Z,52.75
2022-12-20T05:07:59.043Z,52.83
2022-12-20T05:08:21.735Z,52.73
2022-12-20T05:08:46.987Z,52.57
2022-12-20T05:09:08.698Z,52.40
2022-12-20T05:09:30.378Z,52.46
2022-12-20T05:09:51.982Z,52.40
2022-12-20T05:10:13.670Z,52.68
2022-12-20T05:10:37.671Z,52.44
2022-12-20T05:10:59.369Z,52.30
2022-12-20T05:11:21.132Z,52.30
2022-12-20T05:11:42.804Z,52.38
2022-12-20T05:12:05.682Z,52.33
2022-12-20T05:12:28.533Z,52.42
2022-12-20T05:12:52.762Z,52.10
2022-12-20T05:13:25.777Z,52.51
2022-12-20T05:13:48.465Z,52.35
2022-12-20T05:14:12.703Z,52.55
2022-12-20T05:14:34.404Z,52.75
2022-12-20T05:14:56.935Z,52.34
2022-12-20T05:15:20.463Z,52.35
2022-12-20T05:15:42.603Z,52.64
2022-12-20T05:16:06.473Z,52.47
2022-12-20T05:16:30.514Z,52.36